Time;durP1;ratioP1;P1;durP2;ratioP2;P2;SDS_P1;SDS_P2;PMS_P1;PMS_P2;Temp;Humidity;BMP_temperature;BMP_pressure;BME280_temperature;BME280_humidity;BME280_pressure;Samples;Min_cycle;Max_cycle;Signal;HPM_P1;HPM_P2
2023/12/26 00:01:37;;;;;;;;;;;11.20;99.90;;;;;;2619743;47;19946;-73
2023/12/26 00:04:07;;;;;;;;;;;11.20;99.90;;;;;;2617059;54;20030;-73
2023/12/26 00:06:38;;;;;;;;;;;11.20;99.90;;;;;;2617171;54;20429;-73
2023/12/26 00:09:08;;;;;;;;;;;11.20;99.90;;;;;;2616333;54;19939;-71
2023/12/26 00:11:42;;;;;;;;;;;11.20;99.90;;;;;;2616684;47;19939;-71
2023/12/26 00:14:12;;;;;;;;;;;11.20;99.90;;;;;;2617458;47;19946;-72
2023/12/26 00:16:45;;;;;;;;;;;11.20;99.90;;;;;;2622147;47;19969;-73
2023/12/26 00:19:15;;;;;;;;;;;11.40;99.90;;;;;;2617504;47;19947;-73
2023/12/26 00:21:45;;;;;;;;;;;11.20;99.90;;;;;;2616524;54;19946;-73
2023/12/26 00:24:14;;;;;;;;;;;11.20;99.90;;;;;;2616392;54;20603;-74
2023/12/26 00:26:44;;;;;;;;;;;11.20;99.90;;;;;;2617259;54;19954;-73
2023/12/26 00:29:14;;;;;;;;;;;11.20;99.90;;;;;;2617198;47;19951;-72
2023/12/26 00:31:46;;;;;;;;;;;11.20;99.90;;;;;;2618042;54;19946;-73
2023/12/26 00:34:16;;;;;;;;;;;11.20;99.90;;;;;;2617706;54;19954;-73
2023/12/26 00:36:46;;;;;;;;;;;11.10;99.90;;;;;;2617152;54;19950;-72
2023/12/26 00:39:15;;;;;;;;;;;11.20;99.90;;;;;;2617781;39;20420;-73
2023/12/26 00:41:45;;;;;;;;;;;11.20;99.90;;;;;;2617405;47;20448;-73
2023/12/26 00:44:15;;;;;;;;;;;11.20;99.90;;;;;;2619066;54;19959;-73
2023/12/26 00:46:47;;;;;;;;;;;11.10;99.90;;;;;;2617437;47;19972;-72
2023/12/26 00:49:16;;;;;;;;;;;11.10;99.90;;;;;;2616377;50;19976;-72
2023/12/26 00:51:46;;;;;;;;;;;11.10;99.90;;;;;;2617123;47;19957;-71
2023/12/26 00:54:16;;;;;;;;;;;11.10;99.90;;;;;;2614990;54;19993;-71
2023/12/26 00:56:46;;;;;;;;;;;11.10;99.90;;;;;;2619007;54;19938;-72
2023/12/26 00:59:16;;;;;;;;;;;11.10;99.90;;;;;;2621570;54;19997;-72
2023/12/26 01:01:48;;;;;;;;;;;11.10;99.90;;;;;;2618487;54;19953;-72
2023/12/26 01:04:21;;;;;;;;;;;11.10;99.90;;;;;;2615837;54;19946;-72
2023/12/26 01:06:51;;;;;;;;;;;11.00;99.90;;;;;;2616139;54;19954;-71
2023/12/26 01:09:20;;;;;;;;;;;11.00;99.90;;;;;;2617638;39;20326;-72
2023/12/26 01:11:50;;;;;;;;;;;11.00;99.90;;;;;;2617200;47;19957;-71
2023/12/26 01:14:20;;;;;;;;;;;11.00;99.90;;;;;;2616653;54;19954;-71
2023/12/26 01:16:52;;;;;;;;;;;11.00;99.90;;;;;;2617776;54;20509;-72
2023/12/26 01:19:22;;;;;;;;;;;11.00;99.90;;;;;;2617416;54;19945;-72
2023/12/26 01:21:51;;;;;;;;;;;11.00;99.90;;;;;;2617959;47;19992;-72
2023/12/26 01:24:21;;;;;;;;;;;11.10;99.90;;;;;;2618124;54;19956;-72
2023/12/26 01:26:51;;;;;;;;;;;11.10;99.90;;;;;;2618908;54;19938;-72
2023/12/26 01:29:20;;;;;;;;;;;11.10;99.90;;;;;;2618724;54;20632;-72
2023/12/26 01:31:52;;;;;;;;;;;11.10;99.90;;;;;;2617755;54;19946;-71
2023/12/26 01:34:22;;;;;;;;;;;11.00;99.90;;;;;;2616775;50;20448;-72
2023/12/26 01:36:52;;;;;;;;;;;11.10;99.90;;;;;;2617598;54;19954;-72
2023/12/26 01:39:21;;;;;;;;;;;11.00;99.90;;;;;;2616447;47;19947;-72
2023/12/26 01:41:51;;;;;;;;;;;11.10;99.90;;;;;;2617201;47;20495;-72
2023/12/26 01:44:21;;;;;;;;;;;11.10;99.90;;;;;;2623433;54;19989;-71
2023/12/26 01:46:53;;;;;;;;;;;11.00;99.90;;;;;;2627598;51;20046;-71
2023/12/26 01:49:23;;;;;;;;;;;11.00;99.90;;;;;;2621690;47;19989;-71
2023/12/26 01:51:53;;;;;;;;;;;11.00;99.90;;;;;;2616496;47;19946;-71
2023/12/26 01:54:25;;;;;;;;;;;11.00;99.90;;;;;;2614058;54;20496;-71
2023/12/26 01:56:54;;;;;;;;;;;10.90;99.90;;;;;;2616245;47;19946;-71
2023/12/26 01:59:24;;;;;;;;;;;10.90;99.90;;;;;;2616490;54;19959;-72
2023/12/26 02:01:57;;;;;;;;;;;10.90;99.90;;;;;;2616438;54;19946;-72
2023/12/26 02:04:27;;;;;;;;;;;10.90;99.90;;;;;;2616658;47;19939;-71
2023/12/26 02:06:57;;;;;;;;;;;10.90;99.90;;;;;;2618977;49;19946;-71
2023/12/26 02:09:29;;;;;;;;;;;10.80;99.90;;;;;;2615817;47;19938;-70
2023/12/26 02:11:59;;;;;;;;;;;10.80;99.90;;;;;;2616410;54;19950;-70
2023/12/26 02:14:29;;;;;;;;;;;10.90;99.90;;;;;;2616406;46;19947;-70
2023/12/26 02:17:04;;;;;;;;;;;10.80;99.90;;;;;;2615204;39;20476;-70
2023/12/26 02:19:34;;;;;;;;;;;10.80;99.90;;;;;;2617210;47;19946;-70
2023/12/26 02:22:03;;;;;;;;;;;10.90;99.90;;;;;;2619654;54;19946;-70
2023/12/26 02:24:36;;;;;;;;;;;10.80;99.90;;;;;;2620984;54;19947;-69
2023/12/26 02:27:05;;;;;;;;;;;10.90;99.90;;;;;;2616156;47;19998;-71
2023/12/26 02:29:35;;;;;;;;;;;10.80;99.90;;;;;;2617445;47;19939;-71
2023/12/26 02:32:06;;;;;;;;;;;10.80;99.90;;;;;;2615261;47;19946;-71
2023/12/26 02:34:36;;;;;;;;;;;10.70;99.90;;;;;;2616441;54;19939;-71
2023/12/26 02:37:06;;;;;;;;;;;10.80;99.90;;;;;;2615174;47;19942;-71
2023/12/26 02:39:39;;;;;;;;;;;10.80;99.90;;;;;;2616321;47;19939;-71
2023/12/26 02:42:09;;;;;;;;;;;10.80;99.90;;;;;;2616452;47;19954;-71
2023/12/26 02:44:39;;;;;;;;;;;10.80;99.90;;;;;;2614920;47;19974;-72
2023/12/26 02:47:08;;;;;;;;;;;10.80;99.90;;;;;;2617497;54;20449;-71
2023/12/26 02:49:38;;;;;;;;;;;10.80;99.90;;;;;;2617362;54;19954;-72
2023/12/26 02:52:08;;;;;;;;;;;10.80;99.90;;;;;;2616994;54;19992;-72
2023/12/26 02:54:40;;;;;;;;;;;10.80;99.90;;;;;;2618439;54;19946;-72
2023/12/26 02:57:10;;;;;;;;;;;10.80;99.90;;;;;;2615376;47;19954;-71
2023/12/26 02:59:39;;;;;;;;;;;10.70;99.90;;;;;;2616637;47;19947;-72
2023/12/26 03:02:09;;;;;;;;;;;10.80;99.90;;;;;;2614946;54;20544;-70
2023/12/26 03:04:39;;;;;;;;;;;10.80;99.90;;;;;;2616107;47;19947;-72
2023/12/26 03:07:08;;;;;;;;;;;10.70;99.90;;;;;;2616704;47;19955;-70
2023/12/26 03:09:40;;;;;;;;;;;10.70;99.90;;;;;;2615645;54;19961;-71
2023/12/26 03:12:10;;;;;;;;;;;10.70;99.90;;;;;;2617232;39;20344;-71
2023/12/26 03:14:40;;;;;;;;;;;10.80;99.90;;;;;;2620662;54;19950;-71
2023/12/26 03:17:10;;;;;;;;;;;10.80;99.90;;;;;;2621525;47;20413;-71
2023/12/26 03:19:39;;;;;;;;;;;10.80;99.90;;;;;;2617749;54;20445;-71
2023/12/26 03:22:09;;;;;;;;;;;10.80;99.90;;;;;;2616122;46;19942;-71
2023/12/26 03:24:41;;;;;;;;;;;10.90;99.90;;;;;;2616067;54;19938;-72
2023/12/26 03:27:11;;;;;;;;;;;10.90;99.90;;;;;;2615694;49;19945;-72
2023/12/26 03:29:41;;;;;;;;;;;10.90;99.90;;;;;;2618847;47;19962;-71
2023/12/26 03:32:11;;;;;;;;;;;10.90;99.90;;;;;;2615797;47;20000;-71
2023/12/26 03:34:41;;;;;;;;;;;10.90;99.90;;;;;;2616066;39;20433;-71
2023/12/26 03:37:10;;;;;;;;;;;10.90;99.90;;;;;;2623470;54;19953;-83
2023/12/26 03:39:43;;;;;;;;;;;10.90;99.90;;;;;;2629322;47;19954;-84
2023/12/26 03:42:13;;;;;;;;;;;10.80;99.90;;;;;;2642789;31;20594;-84
2023/12/26 03:44:46;;;;;;;;;;;10.80;99.90;;;;;;2629680;54;19950;-84
2023/12/26 03:47:17;;;;;;;;;;;10.80;99.90;;;;;;2629584;47;19927;-84
2023/12/26 03:49:46;;;;;;;;;;;10.80;99.90;;;;;;2629544;47;19939;-80
2023/12/26 03:52:16;;;;;;;;;;;11.20;99.90;;;;;;2629438;47;20001;-82
2023/12/26 03:54:49;;;;;;;;;;;10.70;99.90;;;;;;2630625;47;19968;-83
2023/12/26 03:57:19;;;;;;;;;;;10.70;99.90;;;;;;2629739;47;19950;-81
2023/12/26 03:59:49;;;;;;;;;;;10.70;99.90;;;;;;2629360;47;20706;-82
2023/12/26 04:02:20;;;;;;;;;;;10.70;99.90;;;;;;2628853;47;19939;-81
2023/12/26 04:04:50;;;;;;;;;;;10.70;99.90;;;;;;2629366;47;19953;-81
2023/12/26 04:07:20;;;;;;;;;;;10.70;99.90;;;;;;2591821;54;19939;-71
2023/12/26 04:09:52;;;;;;;;;;;10.60;99.90;;;;;;2616264;54;19950;-72
2023/12/26 04:12:21;;;;;;;;;;;10.70;99.90;;;;;;2618129;54;20436;-72
2023/12/26 04:14:51;;;;;;;;;;;10.70;99.90;;;;;;2616269;47;19946;-72
2023/12/26 04:17:21;;;;;;;;;;;10.60;99.90;;;;;;2618381;39;20091;-72
2023/12/26 04:19:51;;;;;;;;;;;10.70;99.90;;;;;;2617684;54;19945;-72
2023/12/26 04:24:48;;;;;;;;;;;10.70;99.90;;;;;;2619302;54;20065;-72
2023/12/26 04:27:20;;;;;;;;;;;10.60;99.90;;;;;;2620264;54;19943;-72
2023/12/26 04:29:49;;;;;;;;;;;10.60;99.90;;;;;;2618828;54;19954;-72
2023/12/26 04:32:19;;;;;;;;;;;10.60;99.90;;;;;;2618114;47;20045;-72
2023/12/26 04:34:49;;;;;;;;;;;10.60;99.90;;;;;;2617379;54;19946;-72
2023/12/26 04:37:19;;;;;;;;;;;10.60;99.90;;;;;;2617348;54;19953;-72
2023/12/26 04:39:49;;;;;;;;;;;10.60;99.90;;;;;;2618182;54;19957;-72
2023/12/26 04:42:21;;;;;;;;;;;10.60;99.90;;;;;;2618652;54;19948;-71
2023/12/26 04:44:51;;;;;;;;;;;10.60;99.90;;;;;;2618926;54;20038;-71
2023/12/26 04:47:21;;;;;;;;;;;10.60;99.90;;;;;;2618038;46;19959;-73
2023/12/26 04:49:50;;;;;;;;;;;10.70;99.90;;;;;;2618443;54;19939;-72
2023/12/26 04:52:21;;;;;;;;;;;10.60;99.90;;;;;;2618180;46;19966;-71
2023/12/26 04:54:50;;;;;;;;;;;10.60;99.90;;;;;;2619002;54;19946;-71
2023/12/26 04:57:22;;;;;;;;;;;10.60;99.90;;;;;;2623055;54;20061;-71
2023/12/26 04:59:52;;;;;;;;;;;10.60;99.90;;;;;;2625191;54;19977;-72
2023/12/26 05:02:22;;;;;;;;;;;10.70;99.90;;;;;;2626495;54;19945;-72
2023/12/26 05:04:51;;;;;;;;;;;10.70;99.90;;;;;;2617280;54;19946;-72
2023/12/26 05:07:21;;;;;;;;;;;10.70;99.90;;;;;;2617618;54;19946;-73
2023/12/26 05:09:50;;;;;;;;;;;10.70;99.90;;;;;;2618309;54;19946;-72
2023/12/26 05:12:23;;;;;;;;;;;10.60;99.90;;;;;;2618286;47;19946;-72
2023/12/26 05:14:52;;;;;;;;;;;10.60;99.90;;;;;;2619016;54;19938;-73
2023/12/26 05:17:22;;;;;;;;;;;10.60;99.90;;;;;;2618763;54;19947;-73
2023/12/26 05:19:52;;;;;;;;;;;10.70;99.90;;;;;;2617654;54;19968;-72
2023/12/26 05:22:21;;;;;;;;;;;10.60;99.90;;;;;;2618574;47;20041;-72
2023/12/26 05:24:52;;;;;;;;;;;10.60;99.90;;;;;;2617856;54;19946;-73
2023/12/26 05:27:24;;;;;;;;;;;10.50;99.90;;;;;;2618045;54;19950;-70
2023/12/26 05:29:54;;;;;;;;;;;10.50;99.90;;;;;;2618514;54;19946;-72
2023/12/26 05:32:24;;;;;;;;;;;10.50;99.90;;;;;;2618211;54;19951;-72
2023/12/26 05:34:55;;;;;;;;;;;10.40;99.90;;;;;;2617429;54;19953;-72
2023/12/26 05:37:25;;;;;;;;;;;10.40;99.90;;;;;;2618482;54;20445;-72
2023/12/26 05:39:54;;;;;;;;;;;10.40;99.90;;;;;;2618156;54;19953;-72
2023/12/26 05:42:26;;;;;;;;;;;10.40;99.90;;;;;;2615143;54;19957;-72
2023/12/26 05:44:57;;;;;;;;;;;10.40;99.90;;;;;;2615801;54;19939;-72
2023/12/26 05:47:26;;;;;;;;;;;10.50;99.90;;;;;;2618627;54;19946;-72
2023/12/26 05:49:58;;;;;;;;;;;10.50;99.90;;;;;;2617912;54;19954;-73
2023/12/26 05:52:29;;;;;;;;;;;10.40;99.90;;;;;;2617763;54;19939;-72
2023/12/26 05:54:59;;;;;;;;;;;10.40;99.90;;;;;;2617434;54;19947;-72
2023/12/26 05:57:32;;;;;;;;;;;10.40;99.90;;;;;;2619779;39;20360;-72
2023/12/26 06:00:05;;;;;;;;;;;10.40;99.90;;;;;;2619522;54;19952;-72
2023/12/26 06:02:34;;;;;;;;;;;10.40;99.90;;;;;;2618903;54;19946;-72
2023/12/26 06:05:04;;;;;;;;;;;10.40;99.90;;;;;;2617859;54;19947;-72
2023/12/26 06:07:33;;;;;;;;;;;10.40;99.90;;;;;;2617628;54;19946;-72
2023/12/26 06:10:04;;;;;;;;;;;10.40;99.90;;;;;;2614511;54;20448;-72
2023/12/26 06:12:36;;;;;;;;;;;10.40;99.90;;;;;;2617951;54;19946;-72
2023/12/26 06:15:06;;;;;;;;;;;10.30;99.90;;;;;;2618141;54;19950;-71
2023/12/26 06:17:36;;;;;;;;;;;10.30;99.90;;;;;;2618239;54;19954;-72
2023/12/26 06:20:07;;;;;;;;;;;10.30;99.90;;;;;;2617997;47;19953;-72
2023/12/26 06:22:37;;;;;;;;;;;10.30;99.90;;;;;;2617478;54;19939;-72
2023/12/26 06:25:07;;;;;;;;;;;10.30;99.90;;;;;;2616895;54;19950;-72
2023/12/26 06:27:39;;;;;;;;;;;10.20;99.90;;;;;;2617616;47;19954;-72
2023/12/26 06:30:10;;;;;;;;;;;10.20;99.90;;;;;;2618361;47;19958;-72
2023/12/26 06:32:40;;;;;;;;;;;10.20;99.90;;;;;;2620120;54;19951;-72
2023/12/26 06:35:10;;;;;;;;;;;10.20;99.90;;;;;;2617922;54;20069;-72
2023/12/26 06:37:40;;;;;;;;;;;10.20;99.90;;;;;;2618433;54;19938;-71
2023/12/26 06:40:11;;;;;;;;;;;10.10;99.90;;;;;;2617193;54;20456;-72
2023/12/26 06:42:46;;;;;;;;;;;10.10;99.90;;;;;;2617774;54;19950;-71
2023/12/26 06:45:16;;;;;;;;;;;10.10;99.90;;;;;;2617972;54;19947;-72
2023/12/26 06:47:45;;;;;;;;;;;10.10;99.90;;;;;;2617859;54;19946;-72
2023/12/26 06:50:17;;;;;;;;;;;10.10;99.90;;;;;;2616383;54;20030;-72
2023/12/26 06:52:47;;;;;;;;;;;10.10;99.90;;;;;;2618173;54;19951;-71
2023/12/26 06:55:17;;;;;;;;;;;10.10;99.90;;;;;;2618023;47;19947;-71
2023/12/26 06:57:50;;;;;;;;;;;10.20;99.90;;;;;;2619049;39;20349;-71
2023/12/26 07:00:21;;;;;;;;;;;10.20;99.90;;;;;;2617200;47;19939;-71
2023/12/26 07:02:50;;;;;;;;;;;10.20;99.90;;;;;;2616801;54;20323;-72
2023/12/26 07:05:20;;;;;;;;;;;10.20;99.90;;;;;;2617139;47;19938;-71
2023/12/26 07:07:50;;;;;;;;;;;10.20;99.90;;;;;;2616095;54;19946;-71
2023/12/26 07:10:20;;;;;;;;;;;10.20;99.90;;;;;;2618198;54;19939;-71
2023/12/26 07:12:52;;;;;;;;;;;10.20;99.90;;;;;;2621760;54;19967;-71
2023/12/26 07:15:22;;;;;;;;;;;10.20;99.90;;;;;;2623455;54;20517;-69
2023/12/26 07:17:52;;;;;;;;;;;10.20;99.90;;;;;;2617511;47;19946;-70
2023/12/26 07:20:24;;;;;;;;;;;10.20;99.90;;;;;;2617481;54;20001;-69
2023/12/26 07:22:54;;;;;;;;;;;10.30;99.90;;;;;;2615589;54;19950;-70
2023/12/26 07:25:24;;;;;;;;;;;10.30;99.90;;;;;;2617409;47;19942;-70
2023/12/26 07:27:56;;;;;;;;;;;10.20;99.90;;;;;;2617813;47;19947;-71
2023/12/26 07:30:26;;;;;;;;;;;10.30;99.90;;;;;;2617150;47;19976;-70
2023/12/26 07:32:56;;;;;;;;;;;10.30;99.90;;;;;;2618439;54;19939;-71
2023/12/26 07:35:26;;;;;;;;;;;10.30;99.90;;;;;;2617631;54;19947;-71
2023/12/26 07:37:55;;;;;;;;;;;10.30;99.90;;;;;;2617609;54;19946;-73
2023/12/26 07:40:25;;;;;;;;;;;10.30;99.90;;;;;;2618792;54;19938;-73
2023/12/26 07:42:57;;;;;;;;;;;10.40;99.90;;;;;;2625023;47;19945;-73
2023/12/26 07:45:27;;;;;;;;;;;10.40;99.90;;;;;;2627661;54;19945;-74
2023/12/26 07:47:57;;;;;;;;;;;10.40;99.90;;;;;;2623792;54;19953;-70
2023/12/26 07:50:27;;;;;;;;;;;10.50;99.90;;;;;;2620751;54;19939;-70
2023/12/26 07:52:57;;;;;;;;;;;10.50;99.90;;;;;;2623250;54;20046;-71
2023/12/26 07:55:26;;;;;;;;;;;10.50;99.90;;;;;;2621972;54;19950;-72
2023/12/26 07:57:59;;;;;;;;;;;10.50;99.90;;;;;;2622141;54;19938;-72
2023/12/26 08:00:31;;;;;;;;;;;10.50;99.90;;;;;;2618546;46;19950;-72
2023/12/26 08:03:05;;;;;;;;;;;10.50;99.90;;;;;;2617768;54;19945;-72
2023/12/26 08:10:59;;;;;;;;;;;10.50;99.90;;;;;;2613128;54;19964;-78
2023/12/26 08:13:31;;;;;;;;;;;10.50;99.90;;;;;;2619153;46;19962;-76
2023/12/26 08:16:03;;;;;;;;;;;10.50;99.90;;;;;;2619320;54;20466;-77
2023/12/26 08:18:32;;;;;;;;;;;10.60;99.90;;;;;;2621433;54;19958;-77
2023/12/26 08:21:04;;;;;;;;;;;10.60;99.90;;;;;;2625188;54;19946;-76
2023/12/26 08:26:21;;;;;;;;;;;10.60;99.90;;;;;;2615523;54;19954;-73
2023/12/26 08:28:53;;;;;;;;;;;10.70;99.90;;;;;;2615429;51;20029;-73
2023/12/26 08:31:23;;;;;;;;;;;10.70;99.90;;;;;;2615626;47;19953;-75
2023/12/26 08:33:53;;;;;;;;;;;10.70;99.90;;;;;;2616156;54;19954;-74
2023/12/26 08:36:22;;;;;;;;;;;10.70;99.90;;;;;;2616536;54;20553;-74
2023/12/26 08:38:52;;;;;;;;;;;10.70;99.90;;;;;;2617322;47;19939;-74
2023/12/26 08:41:22;;;;;;;;;;;10.70;99.90;;;;;;2616583;54;20475;-74
2023/12/26 08:43:54;;;;;;;;;;;10.70;99.90;;;;;;2618617;54;19946;-74
2023/12/26 08:46:24;;;;;;;;;;;10.70;99.90;;;;;;2623209;54;19947;-73
2023/12/26 08:48:53;;;;;;;;;;;10.70;99.90;;;;;;2616282;54;20030;-73
2023/12/26 08:51:23;;;;;;;;;;;10.70;99.90;;;;;;2616073;47;19950;-74
2023/12/26 08:53:54;;;;;;;;;;;10.70;99.90;;;;;;2616047;47;19951;-73
2023/12/26 08:56:24;;;;;;;;;;;10.70;99.90;;;;;;2616479;47;20471;-74
2023/12/26 08:58:57;;;;;;;;;;;10.80;99.90;;;;;;2616901;47;19962;-74
2023/12/26 09:01:26;;;;;;;;;;;10.80;99.90;;;;;;2618174;54;19946;-75
2023/12/26 09:03:56;;;;;;;;;;;10.80;99.90;;;;;;2616605;54;20751;-74
2023/12/26 09:06:26;;;;;;;;;;;10.80;99.90;;;;;;2617029;54;19953;-73
2023/12/26 09:08:56;;;;;;;;;;;10.80;99.90;;;;;;2616356;54;19981;-73
2023/12/26 09:11:25;;;;;;;;;;;10.80;99.90;;;;;;2616614;47;19946;-73
2023/12/26 09:13:58;;;;;;;;;;;10.80;99.90;;;;;;2616620;54;19953;-73
2023/12/26 09:16:27;;;;;;;;;;;10.90;99.90;;;;;;2616705;54;19945;-73
2023/12/26 09:18:57;;;;;;;;;;;10.80;99.90;;;;;;2616594;54;19972;-73
2023/12/26 09:21:27;;;;;;;;;;;10.90;99.90;;;;;;2617087;54;19939;-73
2023/12/26 09:23:57;;;;;;;;;;;10.90;99.90;;;;;;2616317;39;20356;-73
2023/12/26 09:26:27;;;;;;;;;;;10.80;99.90;;;;;;2616828;54;20019;-73
2023/12/26 09:28:59;;;;;;;;;;;10.80;99.90;;;;;;2616581;54;19946;-73
2023/12/26 09:31:28;;;;;;;;;;;10.90;99.90;;;;;;2617117;54;20687;-73
2023/12/26 09:33:58;;;;;;;;;;;10.90;99.90;;;;;;2616102;54;20523;-73
2023/12/26 09:36:28;;;;;;;;;;;10.90;99.90;;;;;;2616796;47;19945;-73
2023/12/26 09:38:57;;;;;;;;;;;10.80;99.90;;;;;;2618287;47;19954;-73
2023/12/26 09:41:27;;;;;;;;;;;10.80;99.90;;;;;;2617164;54;19962;-73
2023/12/26 09:43:59;;;;;;;;;;;10.80;99.90;;;;;;2617168;47;19938;-73
2023/12/26 09:46:29;;;;;;;;;;;10.80;99.90;;;;;;2616257;46;19938;-73
2023/12/26 09:48:59;;;;;;;;;;;10.80;99.90;;;;;;2616370;47;19939;-73
2023/12/26 09:51:46;;;;;;;;;;;10.80;99.90;;;;;;2617306;54;20065;-73
2023/12/26 09:54:16;;;;;;;;;;;10.90;99.90;;;;;;2617470;47;20061;-72
2023/12/26 09:56:46;;;;;;;;;;;10.80;99.90;;;;;;2618216;47;19954;-74
2023/12/26 09:59:19;;;;;;;;;;;10.90;99.90;;;;;;2618377;50;20008;-73
2023/12/26 10:01:49;;;;;;;;;;;10.90;99.90;;;;;;2621043;54;19950;-73
2023/12/26 10:04:18;;;;;;;;;;;10.90;99.90;;;;;;2618331;54;20437;-72
2023/12/26 10:06:48;;;;;;;;;;;10.90;99.90;;;;;;2622154;39;20336;-73
2023/12/26 10:09:19;;;;;;;;;;;10.90;99.90;;;;;;2619792;47;19947;-73
2023/12/26 10:11:49;;;;;;;;;;;11.00;99.90;;;;;;2618575;54;20490;-73
2023/12/26 10:14:28;;;;;;;;;;;11.00;99.90;;;;;;2617256;54;19964;-73
2023/12/26 10:16:58;;;;;;;;;;;11.00;99.90;;;;;;2617731;54;20455;-72
2023/12/26 10:19:28;;;;;;;;;;;11.00;99.90;;;;;;2618080;54;19958;-73
2023/12/26 10:21:58;;;;;;;;;;;11.00;99.90;;;;;;2617818;54;19950;-73
2023/12/26 10:24:27;;;;;;;;;;;11.10;99.90;;;;;;2617384;54;19946;-74
2023/12/26 10:26:57;;;;;;;;;;;11.10;99.90;;;;;;2620176;39;20326;-73
2023/12/26 10:29:30;;;;;;;;;;;11.00;99.90;;;;;;2618168;47;20069;-74
2023/12/26 10:32:02;;;;;;;;;;;11.10;99.90;;;;;;2618541;54;19946;-73
2023/12/26 10:34:32;;;;;;;;;;;11.00;99.90;;;;;;2617877;54;19951;-73
2023/12/26 10:37:02;;;;;;;;;;;11.10;99.90;;;;;;2618552;39;20376;-73
2023/12/26 10:39:31;;;;;;;;;;;11.10;99.90;;;;;;2617602;47;20763;-73
2023/12/26 10:42:02;;;;;;;;;;;11.10;99.90;;;;;;2617494;54;19947;-72
2023/12/26 10:44:34;;;;;;;;;;;11.20;99.90;;;;;;2617489;47;20587;-72
2023/12/26 10:47:04;;;;;;;;;;;11.20;99.90;;;;;;2618121;54;19946;-73
2023/12/26 10:49:34;;;;;;;;;;;11.20;99.90;;;;;;2617957;46;19973;-73
2023/12/26 10:52:07;;;;;;;;;;;11.30;99.90;;;;;;2622203;47;19958;-73
2023/12/26 10:54:38;;;;;;;;;;;11.30;99.90;;;;;;2618979;54;19947;-72
2023/12/26 10:57:09;;;;;;;;;;;11.30;99.90;;;;;;2618333;47;19942;-73
2023/12/26 10:59:39;;;;;;;;;;;11.30;99.90;;;;;;2618045;54;19954;-73
2023/12/26 11:02:09;;;;;;;;;;;11.30;99.90;;;;;;2618541;39;20630;-73
2023/12/26 11:04:43;;;;;;;;;;;11.30;99.90;;;;;;2617911;54;19938;-74
2023/12/26 11:07:12;;;;;;;;;;;11.30;99.90;;;;;;2618915;54;20445;-73
2023/12/26 11:09:40;;;;;;;;;;;11.30;99.90;;;;;;2618623;47;19950;-72
2023/12/26 11:12:07;;;;;;;;;;;13.60;99.90;;;;;;2619240;54;19946;-73
2023/12/26 11:14:38;;;;;;;;;;;11.20;99.90;;;;;;2617656;39;20459;-73
2023/12/26 11:17:09;;;;;;;;;;;11.20;99.90;;;;;;2617223;54;19947;-73
2023/12/26 11:19:38;;;;;;;;;;;11.20;99.90;;;;;;2618172;47;19950;-73
2023/12/26 11:22:05;;;;;;;;;;;11.30;99.90;;;;;;2616965;54;19962;-73
2023/12/26 11:24:33;;;;;;;;;;;11.30;99.90;;;;;;2617426;54;19939;-73
2023/12/26 11:27:02;;;;;;;;;;;11.30;99.90;;;;;;2617732;47;20038;-74
2023/12/26 11:29:30;;;;;;;;;;;11.30;99.90;;;;;;2617851;47;19939;-73
2023/12/26 11:31:57;;;;;;;;;;;11.30;99.90;;;;;;2617435;47;19953;-73
2023/12/26 11:34:29;;;;;;;;;;;11.30;99.90;;;;;;2617885;47;20025;-73
2023/12/26 20:26:23;;;;;;;;;;;11.30;99.90;;;;;;2617339;47;20272;-73
2023/12/26 20:28:53;;;;;;;;;;;8.50;99.90;;;;;;2617291;47;19946;-72
2023/12/26 20:31:23;;;;;;;;;;;8.40;99.90;;;;;;2616617;47;19947;-72
2023/12/26 20:33:53;;;;;;;;;;;8.50;99.90;;;;;;2618107;54;20488;-73
2023/12/26 20:36:23;;;;;;;;;;;8.50;99.90;;;;;;2617591;47;19952;-72
2023/12/26 20:38:53;;;;;;;;;;;8.40;99.90;;;;;;2618260;47;20515;-73
2023/12/26 20:41:25;;;;;;;;;;;9.90;99.90;;;;;;2617916;54;19939;-74
2023/12/26 20:43:55;;;;;;;;;;;8.40;99.90;;;;;;2617692;54;19989;-73
2023/12/26 20:46:25;;;;;;;;;;;8.40;99.90;;;;;;2616768;54;19954;-74
2023/12/26 20:48:54;;;;;;;;;;;8.40;99.90;;;;;;2618204;54;19985;-73
2023/12/26 20:51:24;;;;;;;;;;;8.40;99.90;;;;;;2618878;47;19954;-73
2023/12/26 20:53:54;;;;;;;;;;;8.40;99.90;;;;;;2618399;54;19957;-73
2023/12/26 20:56:27;;;;;;;;;;;8.30;99.90;;;;;;2618518;54;19947;-73
2023/12/26 20:58:57;;;;;;;;;;;8.30;99.90;;;;;;2618728;54;19947;-74
2023/12/26 21:01:27;;;;;;;;;;;8.30;99.90;;;;;;2617709;46;19968;-75
2023/12/26 21:03:57;;;;;;;;;;;8.30;99.90;;;;;;2618998;39;20452;-75
2023/12/26 21:06:27;;;;;;;;;;;8.30;99.90;;;;;;2618880;54;19947;-77
2023/12/26 21:08:56;;;;;;;;;;;8.50;99.90;;;;;;2619015;54;20441;-77
2023/12/26 21:11:29;;;;;;;;;;;8.30;99.90;;;;;;2619256;54;19962;-76
2023/12/26 21:13:58;;;;;;;;;;;8.30;99.90;;;;;;2619503;54;19947;-76
2023/12/26 21:16:28;;;;;;;;;;;8.40;99.90;;;;;;2619521;54;19958;-75
2023/12/26 21:18:58;;;;;;;;;;;8.40;99.90;;;;;;2619504;47;19947;-77
2023/12/26 21:21:28;;;;;;;;;;;8.40;99.90;;;;;;2620291;39;20400;-75
2023/12/26 21:23:58;;;;;;;;;;;8.40;99.90;;;;;;2619240;54;19939;-76
2023/12/26 21:26:30;;;;;;;;;;;8.40;99.90;;;;;;2622122;54;19945;-77
2023/12/26 21:29:00;;;;;;;;;;;8.30;99.90;;;;;;2622557;46;19950;-77
2023/12/26 21:31:30;;;;;;;;;;;8.40;99.90;;;;;;2621559;47;19945;-76
2023/12/26 21:33:59;;;;;;;;;;;8.30;99.90;;;;;;2621866;54;20441;-76
2023/12/26 21:36:30;;;;;;;;;;;8.30;99.90;;;;;;2620524;47;19947;-76
2023/12/26 21:39:00;;;;;;;;;;;8.40;99.90;;;;;;2620116;47;20016;-75
2023/12/26 21:41:33;;;;;;;;;;;8.40;99.90;;;;;;2620432;47;19943;-76
2023/12/26 21:44:03;;;;;;;;;;;8.40;99.90;;;;;;2620377;50;19951;-75
2023/12/26 21:46:32;;;;;;;;;;;8.30;99.90;;;;;;2620825;47;20055;-76
2023/12/26 21:49:02;;;;;;;;;;;8.50;99.90;;;;;;2619292;46;19950;-76
2023/12/26 21:51:32;;;;;;;;;;;8.00;99.90;;;;;;2619536;47;19946;-76
2023/12/26 21:54:02;;;;;;;;;;;8.20;99.90;;;;;;2618795;47;20767;-75
2023/12/26 21:56:35;;;;;;;;;;;8.20;99.90;;;;;;2619330;54;19954;-75
2023/12/26 21:59:04;;;;;;;;;;;8.20;99.90;;;;;;2618441;47;19973;-75
2023/12/26 22:01:34;;;;;;;;;;;8.20;99.90;;;;;;2618817;47;20499;-76
2023/12/26 22:04:04;;;;;;;;;;;8.10;99.90;;;;;;2617958;39;20329;-75
2023/12/26 22:06:34;;;;;;;;;;;7.90;99.90;;;;;;2618553;54;20762;-76
2023/12/26 22:09:05;;;;;;;;;;;7.90;99.90;;;;;;2619176;46;19939;-75
2023/12/26 22:11:42;;;;;;;;;;;8.00;99.90;;;;;;2619607;54;19938;-75
2023/12/26 22:14:11;;;;;;;;;;;8.00;99.90;;;;;;2620718;54;19946;-76
2023/12/26 22:16:41;;;;;;;;;;;8.00;99.90;;;;;;2620079;54;20480;-76
2023/12/26 22:19:11;;;;;;;;;;;8.00;99.90;;;;;;2614425;47;19946;-72
2023/12/26 22:21:42;;;;;;;;;;;8.00;99.90;;;;;;2605870;47;20553;-72
2023/12/26 22:24:11;;;;;;;;;;;8.00;99.90;;;;;;2606543;54;19952;-73
2023/12/26 22:26:45;;;;;;;;;;;8.00;99.90;;;;;;2606156;47;20596;-73
2023/12/26 22:29:14;;;;;;;;;;;8.00;99.90;;;;;;2606784;54;20749;-74
2023/12/26 22:31:44;;;;;;;;;;;7.90;99.90;;;;;;2606886;47;20459;-74
2023/12/26 22:34:14;;;;;;;;;;;8.00;99.90;;;;;;2606503;54;19957;-74
2023/12/26 22:36:41;;;;;;;;;;;7.90;99.90;;;;;;2606965;54;19965;-73
2023/12/26 22:39:13;;;;;;;;;;;7.80;99.90;;;;;;2606329;47;20508;-73
2023/12/26 22:41:46;;;;;;;;;;;7.80;99.90;;;;;;2605361;54;19950;-73
2023/12/26 22:44:16;;;;;;;;;;;7.80;99.90;;;;;;2604984;54;19954;-74
2023/12/26 22:46:46;;;;;;;;;;;7.90;99.90;;;;;;2606401;47;19947;-73
2023/12/26 22:49:15;;;;;;;;;;;7.90;99.90;;;;;;2606487;47;19976;-75
2023/12/26 22:51:45;;;;;;;;;;;7.80;99.90;;;;;;2606946;47;19996;-74
2023/12/26 22:54:15;;;;;;;;;;;7.90;99.90;;;;;;2606791;54;20116;-74
2023/12/26 22:56:47;;;;;;;;;;;7.90;99.90;;;;;;2607780;47;19946;-75
2023/12/26 22:59:17;;;;;;;;;;;7.90;99.90;;;;;;2607114;47;19950;-75
2023/12/26 23:01:48;;;;;;;;;;;7.90;99.90;;;;;;2608009;54;19953;-76
2023/12/26 23:04:18;;;;;;;;;;;8.00;99.90;;;;;;2608022;39;20371;-74
2023/12/26 23:06:47;;;;;;;;;;;8.00;99.90;;;;;;2609105;54;19946;-74
2023/12/26 23:09:17;;;;;;;;;;;8.10;99.90;;;;;;2614686;39;20052;-74
2023/12/26 23:11:49;;;;;;;;;;;7.90;99.90;;;;;;2615983;54;20468;-75
2023/12/26 23:14:19;;;;;;;;;;;7.90;99.90;;;;;;2616095;54;19946;-74
2023/12/26 23:16:49;;;;;;;;;;;7.80;99.90;;;;;;2617106;47;19953;-74
2023/12/26 23:19:18;;;;;;;;;;;7.80;99.90;;;;;;2617727;54;19946;-74
2023/12/26 23:21:49;;;;;;;;;;;7.80;99.90;;;;;;2617675;54;19996;-74
2023/12/26 23:24:18;;;;;;;;;;;7.80;99.90;;;;;;2617070;54;19947;-74
2023/12/26 23:26:51;;;;;;;;;;;7.80;99.90;;;;;;2616249;47;19952;-74
2023/12/26 23:29:20;;;;;;;;;;;7.80;99.90;;;;;;2617904;54;19954;-74
2023/12/26 23:31:50;;;;;;;;;;;7.90;99.90;;;;;;2616294;47;19951;-73
2023/12/26 23:34:20;;;;;;;;;;;7.80;99.90;;;;;;2617771;54;19958;-74
2023/12/26 23:37:07;;;;;;;;;;;7.70;99.90;;;;;;2619241;47;19958;-74